Time;durP1;ratioP1;P1;durP2;ratioP2;P2;SDS_P1;SDS_P2;PMS_P1;PMS_P2;Temp;Humidity;BMP_temperature;BMP_pressure;BME280_temperature;BME280_humidity;BME280_pressure;Samples;Min_cycle;Max_cycle;Signal;HPM_P1;HPM_P2
2022/07/27 00:01:00;;;;;;;6.70;2.40;;;19.10;99.90;;;;;;5048768;28;20459;-69
2022/07/27 00:03:27;;;;;;;3.87;2.30;;;19.10;99.90;;;;;;5049794;28;20476;-69
2022/07/27 00:05:54;;;;;;;4.00;3.03;;;19.20;99.90;;;;;;5053052;28;20470;-68
2022/07/27 00:08:22;;;;;;;3.47;2.53;;;19.10;99.90;;;;;;5053462;28;20506;-66
2022/07/27 00:10:49;;;;;;;7.20;3.13;;;19.10;99.90;;;;;;5052850;28;20451;-69
2022/07/27 00:13:16;;;;;;;4.17;2.70;;;19.00;99.90;;;;;;5053765;28;20440;-69
2022/07/27 00:15:43;;;;;;;3.20;2.70;;;19.10;99.90;;;;;;5053198;28;20875;-69
2022/07/27 00:18:12;;;;;;;4.47;2.90;;;19.00;99.90;;;;;;5053433;28;20452;-68
2022/07/27 00:20:40;;;;;;;4.40;2.83;;;19.00;99.90;;;;;;5052439;28;20452;-68
2022/07/27 00:23:06;;;;;;;5.30;2.53;;;18.90;99.90;;;;;;5053290;28;20448;-66
2022/07/27 00:25:34;;;;;;;4.20;3.07;;;18.80;99.90;;;;;;5052988;28;20468;-68
2022/07/27 00:28:00;;;;;;;4.33;2.60;;;18.80;99.90;;;;;;5052990;28;20850;-68
2022/07/27 00:30:28;;;;;;;4.80;3.13;;;18.70;99.90;;;;;;5052552;28;20451;-67
2022/07/27 00:32:55;;;;;;;4.53;2.80;;;18.60;99.90;;;;;;5052914;28;20995;-68
2022/07/27 00:35:24;;;;;;;4.60;2.57;;;18.50;99.90;;;;;;5052340;28;20578;-68
2022/07/27 00:37:51;;;;;;;3.70;2.93;;;18.60;99.90;;;;;;5052683;28;20455;-69
2022/07/27 00:40:18;;;;;;;4.67;3.70;;;18.60;99.90;;;;;;5052228;28;20974;-69
2022/07/27 00:42:45;;;;;;;4.70;2.70;;;18.70;99.90;;;;;;5052807;28;20802;-68
2022/07/27 00:45:12;;;;;;;3.50;2.93;;;18.80;99.90;;;;;;5052390;28;20490;-66
2022/07/27 00:47:39;;;;;;;4.50;3.23;;;18.90;99.90;;;;;;5052483;28;20695;-69
2022/07/27 00:50:07;;;;;;;3.90;3.00;;;19.00;99.90;;;;;;5051705;28;20842;-68
2022/07/27 00:52:36;;;;;;;5.17;2.97;;;19.00;99.90;;;;;;5052709;28;20454;-68
2022/07/27 00:55:03;;;;;;;4.57;3.30;;;19.00;99.90;;;;;;5052024;28;20954;-69
2022/07/27 00:57:30;;;;;;;4.50;2.60;;;19.10;99.90;;;;;;5052544;28;21000;-68
2022/07/27 00:59:57;;;;;;;4.20;3.70;;;19.00;99.90;;;;;;5051465;28;20571;-68
2022/07/27 01:02:25;;;;;;;5.43;3.40;;;18.90;99.90;;;;;;5052150;28;20443;-69
2022/07/27 01:04:51;;;;;;;6.97;4.60;;;18.90;99.90;;;;;;5051952;28;20444;-69
2022/07/27 01:07:18;;;;;;;4.50;3.83;;;19.00;99.90;;;;;;5052510;28;20451;-68
2022/07/27 01:09:59;;;;;;;4.67;3.30;;;19.00;99.90;;;;;;5051474;28;21044;-69
2022/07/27 01:12:28;;;;;;;4.50;3.50;;;19.10;99.90;;;;;;5052067;28;20458;-68
2022/07/27 01:14:56;;;;;;;5.50;3.60;;;19.20;99.90;;;;;;5050873;28;20454;-68
2022/07/27 01:17:24;;;;;;;4.27;3.10;;;19.20;99.90;;;;;;5052793;28;20539;-68
2022/07/27 01:19:51;;;;;;;6.07;3.77;;;19.20;99.90;;;;;;5052043;28;20484;-68
2022/07/27 01:22:19;;;;;;;5.63;3.67;;;19.20;99.90;;;;;;5052853;28;20459;-68
2022/07/27 01:24:47;;;;;;;4.43;3.10;;;19.20;99.90;;;;;;5051870;28;20448;-68
2022/07/27 01:27:14;;;;;;;3.50;2.93;;;19.10;99.90;;;;;;5051934;28;20452;-67
2022/07/27 01:29:44;;;;;;;5.90;3.10;;;19.00;99.90;;;;;;5051639;28;20488;-68
2022/07/27 01:32:20;;;;;;;3.70;3.30;;;18.80;99.90;;;;;;5052088;28;20865;-67
2022/07/27 01:34:51;;;;;;;4.83;4.30;;;18.80;99.90;;;;;;5051433;28;20444;-68
2022/07/27 01:37:19;;;;;;;6.20;3.47;;;18.70;99.90;;;;;;5051663;28;20452;-68
2022/07/27 01:39:46;;;;;;;3.80;3.40;;;18.60;99.90;;;;;;5050923;28;20436;-66
2022/07/27 01:42:15;;;;;;;4.30;3.60;;;18.50;99.90;;;;;;5051224;28;20487;-68
2022/07/27 01:44:42;;;;;;;4.57;3.43;;;18.40;99.90;;;;;;5051279;28;20451;-67
2022/07/27 01:47:08;;;;;;;3.70;3.30;;;18.30;99.90;;;;;;5051199;28;20470;-69
2022/07/27 01:49:35;;;;;;;4.37;3.97;;;18.30;99.90;;;;;;5051387;28;20484;-67
2022/07/27 01:52:02;;;;;;;4.50;3.47;;;18.20;99.90;;;;;;5050472;28;20448;-69
2022/07/27 01:54:30;;;;;;;5.37;3.57;;;18.20;99.90;;;;;;5050939;28;20475;-66
2022/07/27 01:56:57;;;;;;;4.93;3.47;;;18.10;99.90;;;;;;5051340;28;20467;-66
2022/07/27 01:59:24;;;;;;;5.80;3.80;;;18.10;99.90;;;;;;5051269;28;20460;-68
2022/07/27 02:01:50;;;;;;;6.70;4.20;;;18.00;99.90;;;;;;5050335;28;20452;-68
2022/07/27 02:04:18;;;;;;;4.60;3.53;;;18.00;99.90;;;;;;5050840;28;20448;-66
2022/07/27 02:06:44;;;;;;;5.13;3.90;;;18.10;99.90;;;;;;5050959;28;21052;-69
2022/07/27 02:09:11;;;;;;;7.53;4.70;;;18.10;99.90;;;;;;5050873;28;20516;-67
2022/07/27 02:14:23;;;;;;;5.93;4.13;;;18.10;99.90;;;;;;5050754;28;20941;-67
2022/07/27 02:16:50;;;;;;;4.43;4.03;;;18.00;99.90;;;;;;5050789;28;20463;-67
2022/07/27 02:19:17;;;;;;;5.27;4.30;;;18.00;99.90;;;;;;5051057;28;20459;-69
2022/07/27 02:21:44;;;;;;;4.47;4.07;;;18.00;99.90;;;;;;5049932;28;20459;-68
2022/07/27 02:24:11;;;;;;;6.70;4.43;;;18.00;99.90;;;;;;5051025;28;20452;-68
2022/07/27 02:26:39;;;;;;;4.53;4.07;;;17.90;99.90;;;;;;5049388;28;20982;-67
2022/07/27 02:29:06;;;;;;;4.90;4.00;;;17.80;99.90;;;;;;5050642;28;20526;-67
2022/07/27 02:31:34;;;;;;;6.30;4.00;;;17.70;99.90;;;;;;5049854;28;20807;-69
2022/07/27 02:34:01;;;;;;;5.30;3.70;;;17.70;99.90;;;;;;5048834;28;20464;-67
2022/07/27 02:36:28;;;;;;;4.53;3.90;;;17.70;99.90;;;;;;5049899;28;20479;-68
2022/07/27 02:38:55;;;;;;;5.10;3.90;;;17.60;99.90;;;;;;5049451;28;20451;-67
2022/07/27 02:41:21;;;;;;;5.50;4.17;;;17.60;99.90;;;;;;5049664;28;20450;-68
2022/07/27 02:43:50;;;;;;;4.63;4.10;;;17.50;99.90;;;;;;5050231;28;20546;-67
2022/07/27 02:46:16;;;;;;;4.77;4.30;;;17.40;99.90;;;;;;5049358;28;20472;-67
2022/07/27 02:48:43;;;;;;;4.27;3.83;;;17.30;99.90;;;;;;5050202;28;20483;-68
2022/07/27 02:51:10;;;;;;;4.30;3.93;;;17.20;99.90;;;;;;5049291;28;20927;-68
2022/07/27 02:53:37;;;;;;;7.03;4.13;;;17.10;99.90;;;;;;5050424;28;20801;-67
2022/07/27 02:56:04;;;;;;;5.70;4.07;;;17.00;99.90;;;;;;5050017;28;20455;-69
2022/07/27 02:58:31;;;;;;;5.87;4.40;;;17.10;99.90;;;;;;5050584;28;20444;-68
2022/07/27 03:00:59;;;;;;;5.80;4.93;;;17.10;99.90;;;;;;5049468;28;21016;-69
2022/07/27 03:03:27;;;;;;;6.23;4.30;;;17.20;99.90;;;;;;5055286;28;20462;-68
2022/07/27 03:05:53;;;;;;;5.40;4.40;;;17.10;99.90;;;;;;5050438;28;20563;-67
2022/07/27 03:08:20;;;;;;;4.33;3.90;;;17.10;99.90;;;;;;5050151;28;20452;-69
2022/07/27 03:10:47;;;;;;;5.30;4.30;;;17.20;99.90;;;;;;5049015;28;20463;-68
2022/07/27 03:13:14;;;;;;;5.47;4.73;;;17.20;99.90;;;;;;5050067;28;20480;-67
2022/07/27 03:15:41;;;;;;;7.60;4.70;;;17.30;99.90;;;;;;5049502;28;20494;-68
2022/07/27 03:18:09;;;;;;;4.70;4.30;;;17.20;99.90;;;;;;5050003;28;20455;-68
2022/07/27 03:20:36;;;;;;;6.40;4.13;;;17.10;99.90;;;;;;5049497;28;20535;-66
2022/07/27 03:23:03;;;;;;;6.50;5.07;;;17.10;99.90;;;;;;5049937;28;20459;-68
2022/07/27 03:25:30;;;;;;;5.70;5.10;;;17.00;99.90;;;;;;5049459;28;20479;-67
2022/07/27 03:27:57;;;;;;;6.03;4.90;;;16.90;99.90;;;;;;5049931;28;20455;-69
2022/07/27 03:30:23;;;;;;;5.10;4.20;;;16.90;99.90;;;;;;5048948;28;20483;-67
2022/07/27 03:32:50;;;;;;;7.30;5.20;;;16.80;99.90;;;;;;5050879;28;20961;-68
2022/07/27 03:35:18;;;;;;;6.80;5.00;;;16.80;99.90;;;;;;5049862;28;20468;-68
2022/07/27 03:37:45;;;;;;;7.53;4.90;;;16.70;99.90;;;;;;5049378;28;20455;-69
2022/07/27 03:40:12;;;;;;;8.23;4.77;;;16.70;99.90;;;;;;5048931;28;20444;-67
2022/07/27 03:42:39;;;;;;;5.13;4.43;;;16.80;99.90;;;;;;5049656;28;20444;-67
2022/07/27 03:45:07;;;;;;;7.17;4.73;;;16.90;99.90;;;;;;5049125;28;20468;-68
2022/07/27 03:47:34;;;;;;;6.60;5.50;;;17.00;99.90;;;;;;5049820;28;20447;-68
2022/07/27 03:50:01;;;;;;;5.23;4.73;;;17.00;99.90;;;;;;5048767;28;20864;-67
2022/07/27 03:52:29;;;;;;;5.60;5.10;;;17.10;99.90;;;;;;5049520;28;20439;-68
2022/07/27 03:54:56;;;;;;;6.83;5.00;;;17.00;99.90;;;;;;5048941;28;20452;-69
2022/07/27 03:57:23;;;;;;;7.33;5.60;;;17.00;99.90;;;;;;5049452;28;20455;-68
2022/07/27 03:59:50;;;;;;;6.20;5.57;;;17.00;99.90;;;;;;5048466;28;20450;-68
2022/07/27 04:02:17;;;;;;;6.00;5.17;;;17.00;99.90;;;;;;5049349;28;20448;-67
2022/07/27 04:04:44;;;;;;;7.73;5.57;;;16.90;99.90;;;;;;5048973;28;20450;-66
2022/07/27 04:07:11;;;;;;;5.07;4.67;;;17.00;99.90;;;;;;5049383;28;20549;-68
2022/07/27 04:09:39;;;;;;;7.43;5.30;;;17.00;99.90;;;;;;5048896;28;20480;-65
2022/07/27 04:12:06;;;;;;;6.63;4.90;;;16.90;99.90;;;;;;5048679;28;20451;-65
2022/07/27 04:14:33;;;;;;;5.47;5.00;;;17.00;99.90;;;;;;5048678;28;20950;-66
2022/07/27 04:17:00;;;;;;;5.73;5.23;;;17.00;99.90;;;;;;5049431;28;20475;-66
2022/07/27 04:19:26;;;;;;;6.40;5.20;;;16.90;99.90;;;;;;5049249;28;20471;-66
2022/07/27 04:21:53;;;;;;;7.93;5.63;;;16.90;99.90;;;;;;5048323;28;20447;-66
2022/07/27 04:24:20;;;;;;;5.70;5.20;;;17.00;99.90;;;;;;5048750;28;20474;-66
2022/07/27 04:26:48;;;;;;;6.10;5.50;;;17.00;99.90;;;;;;5048826;28;20467;-66
2022/07/27 04:29:15;;;;;;;6.60;5.33;;;17.10;99.90;;;;;;5049040;28;20488;-66
2022/07/27 04:31:42;;;;;;;6.17;5.57;;;17.10;99.90;;;;;;5048172;28;20450;-67
2022/07/27 04:34:09;;;;;;;7.77;6.30;;;17.30;99.90;;;;;;5059179;28;20456;-66
2022/07/27 04:36:38;;;;;;;7.47;6.07;;;17.40;99.90;;;;;;5051928;28;20550;-66
2022/07/27 04:39:05;;;;;;;7.13;5.47;;;17.50;99.90;;;;;;5048832;28;20942;-68
2022/07/27 04:41:32;;;;;;;6.57;5.47;;;17.50;99.90;;;;;;5048184;28;20436;-66
2022/07/27 04:44:00;;;;;;;5.73;4.90;;;17.50;99.90;;;;;;5049015;28;20448;-66
2022/07/27 04:46:28;;;;;;;6.00;5.50;;;17.70;99.90;;;;;;5048363;28;20522;-66
2022/07/27 04:48:55;;;;;;;6.20;5.60;;;17.80;99.90;;;;;;5048763;28;20487;-67
2022/07/27 04:51:22;;;;;;;7.60;5.90;;;18.00;99.90;;;;;;5057640;28;20949;-66
2022/07/27 04:53:49;;;;;;;7.80;5.97;;;18.00;99.90;;;;;;5071997;28;20458;-67
2022/07/27 04:56:15;;;;;;;6.17;5.17;;;18.10;99.90;;;;;;5066570;28;20470;-69
2022/07/27 04:58:42;;;;;;;5.73;5.23;;;18.20;99.90;;;;;;5075754;28;20458;-68
2022/07/27 05:01:12;;;;;;;7.27;5.10;;;18.30;99.90;;;;;;5069888;28;20451;-68
2022/07/27 05:03:39;;;;;;;7.30;5.77;;;18.30;99.90;;;;;;5067949;28;20439;-68
2022/07/27 05:06:06;;;;;;;6.33;5.33;;;18.40;99.90;;;;;;5066044;28;20844;-67
2022/07/27 05:08:33;;;;;;;7.00;5.07;;;18.40;99.90;;;;;;5058886;28;20451;-68
2022/07/27 05:11:00;;;;;;;7.23;6.50;;;18.40;99.90;;;;;;5062092;28;20487;-69
2022/07/27 05:13:27;;;;;;;9.57;5.87;;;18.40;99.90;;;;;;5068138;28;20447;-68
2022/07/27 05:15:53;;;;;;;5.50;5.10;;;18.50;99.90;;;;;;5064032;28;20474;-69
2022/07/27 05:18:22;;;;;;;5.93;5.13;;;18.60;99.90;;;;;;5066547;28;20443;-69
2022/07/27 05:20:49;;;;;;;6.17;5.57;;;18.60;99.90;;;;;;5067803;28;20435;-69
2022/07/27 05:23:16;;;;;;;6.00;5.43;;;18.50;99.90;;;;;;5069952;28;20439;-69
2022/07/27 05:25:42;;;;;;;6.77;5.97;;;18.60;99.90;;;;;;5069297;28;20471;-68
2022/07/27 05:28:11;;;;;;;6.90;6.20;;;18.60;99.90;;;;;;5069817;28;20447;-69
2022/07/27 05:30:38;;;;;;;6.80;6.10;;;18.70;99.90;;;;;;5068543;28;20487;-68
2022/07/27 05:33:05;;;;;;;6.50;5.90;;;18.70;99.90;;;;;;5071844;28;20439;-69
2022/07/27 05:35:33;;;;;;;6.53;5.73;;;18.70;99.90;;;;;;5071275;28;20463;-68
2022/07/27 05:38:00;;;;;;;6.50;5.90;;;18.80;99.90;;;;;;5071983;28;20447;-69
2022/07/27 05:40:27;;;;;;;7.63;4.83;;;18.90;99.90;;;;;;5070762;28;20467;-68
2022/07/27 05:42:54;;;;;;;7.80;5.33;;;18.90;99.90;;;;;;5071663;28;20443;-69
2022/07/27 05:45:21;;;;;;;5.37;4.87;;;18.90;99.90;;;;;;5071151;28;20467;-69
2022/07/27 05:47:47;;;;;;;5.97;5.10;;;18.90;99.90;;;;;;5071031;28;20439;-69
2022/07/27 05:50:15;;;;;;;9.80;5.27;;;19.00;99.90;;;;;;5070267;28;20872;-68
2022/07/27 05:52:44;;;;;;;7.63;5.63;;;19.10;99.90;;;;;;5071603;28;20829;-69
2022/07/27 05:55:11;;;;;;;6.90;5.90;;;19.30;99.90;;;;;;5070864;28;20467;-69
2022/07/27 05:57:39;;;;;;;6.00;5.20;;;19.30;99.90;;;;;;5071323;28;20462;-69
2022/07/27 06:00:07;;;;;;;6.47;5.87;;;19.30;99.90;;;;;;5070497;28;20880;-69
2022/07/27 06:02:34;;;;;;;7.27;5.07;;;19.20;99.90;;;;;;5071361;28;20443;-68
2022/07/27 06:05:01;;;;;;;7.97;5.60;;;19.30;99.90;;;;;;5070816;28;20447;-70
2022/07/27 06:10:13;;;;;;;7.03;6.33;;;19.30;99.90;;;;;;5070456;28;20988;-69
2022/07/27 06:12:41;;;;;;;8.43;7.07;;;19.20;99.90;;;;;;5071362;28;20454;-69
2022/07/27 06:15:10;;;;;;;8.23;5.90;;;19.20;99.90;;;;;;5070612;28;20573;-67
2022/07/27 06:17:37;;;;;;;8.17;5.93;;;19.20;99.90;;;;;;5071126;28;20461;-68
2022/07/27 06:20:06;;;;;;;6.77;6.07;;;19.20;99.90;;;;;;5070747;28;20459;-70
2022/07/27 06:22:43;;;;;;;6.30;5.80;;;19.20;99.90;;;;;;5081862;28;20529;-68
2022/07/27 06:25:10;;;;;;;8.37;7.03;;;19.40;99.90;;;;;;5070608;28;20474;-69
2022/07/27 06:27:38;;;;;;;7.77;6.23;;;19.50;99.90;;;;;;5070871;28;20457;-68
2022/07/27 06:30:05;;;;;;;7.00;6.40;;;19.50;99.90;;;;;;5069993;28;20917;-68
2022/07/27 06:32:32;;;;;;;8.77;6.33;;;19.70;99.90;;;;;;5071110;28;20460;-70
2022/07/27 06:35:00;;;;;;;10.93;6.80;;;19.60;99.90;;;;;;5068777;28;20451;-68
2022/07/27 06:37:28;;;;;;;6.93;6.23;;;19.40;99.90;;;;;;5069780;28;20451;-69
2022/07/27 06:39:55;;;;;;;7.53;5.80;;;19.50;99.90;;;;;;5069677;28;20447;-69
2022/07/27 06:42:22;;;;;;;7.60;5.67;;;19.50;99.90;;;;;;5071614;28;20473;-68
2022/07/27 06:44:50;;;;;;;6.80;5.60;;;19.70;99.90;;;;;;5069136;28;20917;-69
2022/07/27 06:47:17;;;;;;;6.70;6.00;;;20.00;99.90;;;;;;5070489;28;20447;-69
2022/07/27 06:49:44;;;;;;;7.87;5.80;;;20.20;99.90;;;;;;5069319;28;21007;-67
2022/07/27 06:52:11;;;;;;;6.40;5.80;;;20.30;99.90;;;;;;5070008;28;20447;-69
2022/07/27 06:54:37;;;;;;;5.70;5.10;;;20.30;99.90;;;;;;5069677;28;20447;-70
2022/07/27 06:57:04;;;;;;;6.43;5.03;;;20.40;99.90;;;;;;5070404;28;20475;-69
2022/07/27 06:59:33;;;;;;;6.40;5.03;;;20.50;99.90;;;;;;5070175;28;20451;-70
2022/07/27 07:02:01;;;;;;;7.37;5.47;;;20.70;99.90;;;;;;5069384;28;20481;-69
2022/07/27 07:04:28;;;;;;;10.50;5.30;;;20.80;99.90;;;;;;5069269;28;20458;-69
2022/07/27 07:06:59;;;;;;;7.07;5.47;;;20.80;99.90;;;;;;5069812;28;20467;-69
2022/07/27 07:09:26;;;;;;;6.20;4.80;;;20.80;99.90;;;;;;5070128;28;20446;-70
2022/07/27 07:11:53;;;;;;;8.80;5.67;;;20.90;99.90;;;;;;5069016;28;21265;-69
2022/07/27 07:14:20;;;;;;;7.23;4.90;;;21.10;99.90;;;;;;5069253;28;20443;-69
2022/07/27 07:16:47;;;;;;;7.03;5.13;;;21.20;99.90;;;;;;5069500;28;20828;-68
2022/07/27 07:19:15;;;;;;;7.27;4.80;;;21.10;99.90;;;;;;5069853;28;20455;-69
2022/07/27 07:21:42;;;;;;;6.17;5.23;;;21.30;99.90;;;;;;5069028;28;20443;-69
2022/07/27 07:24:09;;;;;;;8.17;5.77;;;21.60;99.90;;;;;;5069785;28;20457;-70
2022/07/27 07:26:37;;;;;;;6.50;5.90;;;21.70;99.90;;;;;;5069645;28;20473;-69
2022/07/27 07:29:04;;;;;;;5.47;4.50;;;21.50;99.90;;;;;;5069954;28;20534;-70
2022/07/27 07:31:31;;;;;;;5.87;5.27;;;21.30;99.90;;;;;;5068877;28;20486;-69
2022/07/27 07:33:58;;;;;;;6.07;5.47;;;21.30;99.90;;;;;;5069710;28;20455;-69
2022/07/27 07:36:26;;;;;;;5.40;5.00;;;21.40;99.90;;;;;;5069178;28;20489;-70
2022/07/27 07:38:54;;;;;;;6.00;5.50;;;21.20;99.90;;;;;;5069688;28;20451;-69
2022/07/27 07:41:21;;;;;;;5.60;5.07;;;21.30;99.90;;;;;;5068957;28;20869;-70
2022/07/27 07:43:48;;;;;;;7.67;5.70;;;21.60;99.90;;;;;;5069531;28;20454;-70
2022/07/27 07:46:15;;;;;;;5.70;5.10;;;21.80;99.90;;;;;;5069190;28;20466;-69
2022/07/27 07:48:42;;;;;;;5.53;4.90;;;21.60;99.90;;;;;;5069468;28;20454;-68
2022/07/27 07:51:09;;;;;;;5.97;5.37;;;21.70;99.90;;;;;;5068892;28;20566;-70
2022/07/27 07:53:38;;;;;;;8.50;5.67;;;22.10;99.90;;;;;;5069641;28;20508;-70
2022/07/27 07:56:05;;;;;;;6.40;4.90;;;22.20;99.90;;;;;;5069332;28;20474;-69
2022/07/27 07:58:32;;;;;;;6.97;4.90;;;22.10;99.90;;;;;;5069520;28;20608;-67
2022/07/27 08:00:59;;;;;;;6.10;5.50;;;21.90;99.90;;;;;;5068526;28;20434;-70
2022/07/27 08:03:26;;;;;;;8.50;5.50;;;22.00;99.90;;;;;;5069429;28;20439;-69
2022/07/27 08:05:53;;;;;;;10.60;5.23;;;22.10;99.90;;;;;;5069232;28;21072;-69
2022/07/27 08:08:19;;;;;;;6.67;5.60;;;22.20;99.90;;;;;;5069394;28;20793;-69
2022/07/27 08:10:48;;;;;;;7.37;6.07;;;22.50;99.90;;;;;;5068610;28;20566;-69
2022/07/27 08:13:15;;;;;;;6.90;5.03;;;22.70;99.90;;;;;;5069470;28;20486;-69
2022/07/27 08:15:42;;;;;;;7.40;5.67;;;22.60;99.90;;;;;;5068739;28;20467;-69
2022/07/27 08:18:09;;;;;;;5.57;5.07;;;22.80;99.90;;;;;;5069320;28;20455;-69
2022/07/27 08:20:36;;;;;;;6.90;5.10;;;23.40;99.90;;;;;;5068704;28;20447;-69
2022/07/27 08:23:03;;;;;;;5.53;5.00;;;23.40;99.90;;;;;;5069497;28;20447;-70
2022/07/27 08:25:30;;;;;;;4.97;4.47;;;23.40;99.90;;;;;;5070788;28;20473;-69
2022/07/27 08:27:59;;;;;;;6.67;4.50;;;23.90;99.90;;;;;;5073166;28;20453;-70
2022/07/27 08:30:26;;;;;;;6.40;5.90;;;24.40;99.90;;;;;;5072047;28;20501;-70
2022/07/27 08:32:57;;;;;;;6.37;4.80;;;24.30;99.90;;;;;;5072962;28;20453;-70
2022/07/27 08:35:24;;;;;;;6.37;4.77;;;24.30;99.90;;;;;;5072670;28;20558;-70
2022/07/27 08:37:51;;;;;;;5.53;4.93;;;24.10;99.90;;;;;;5072801;28;20447;-70
2022/07/27 08:40:19;;;;;;;5.47;4.87;;;24.10;99.90;;;;;;5072053;28;20497;-69
2022/07/27 08:42:46;;;;;;;8.90;4.77;;;24.00;99.90;;;;;;5072746;28;20458;-69
2022/07/27 08:45:17;;;;;;;8.73;5.17;;;23.70;99.90;;;;;;5072147;28;20470;-68
2022/07/27 08:47:45;;;;;;;4.87;4.33;;;23.40;99.90;;;;;;5072821;28;20475;-69
2022/07/27 08:50:26;;;;;;;5.80;4.87;;;23.50;99.90;;;;;;5071809;28;20568;-70
2022/07/27 08:52:56;;;;;;;5.87;4.67;;;23.70;99.90;;;;;;5072613;28;20450;-69
2022/07/27 08:55:23;;;;;;;7.07;4.97;;;23.80;99.90;;;;;;5072156;28;20480;-69
2022/07/27 08:57:50;;;;;;;5.67;5.07;;;23.90;99.90;;;;;;5072770;28;20443;-70
2022/07/27 09:00:19;;;;;;;6.30;4.80;;;23.80;99.90;;;;;;5072099;28;20435;-68
2022/07/27 09:02:47;;;;;;;5.17;4.67;;;24.10;99.90;;;;;;5072436;28;20443;-68
2022/07/27 09:05:14;;;;;;;7.57;4.57;;;24.30;99.90;;;;;;5072288;28;20890;-68
2022/07/27 09:07:41;;;;;;;6.87;5.60;;;24.00;99.90;;;;;;5072290;28;20443;-69
2022/07/27 09:10:09;;;;;;;6.03;4.83;;;23.80;99.90;;;;;;5071462;28;20458;-67
2022/07/27 09:12:37;;;;;;;5.70;4.70;;;23.80;99.90;;;;;;5072420;28;20475;-69
2022/07/27 09:15:09;;;;;;;5.27;4.77;;;23.60;99.90;;;;;;5071950;28;20800;-68
2022/07/27 09:17:39;;;;;;;7.73;4.80;;;23.40;99.90;;;;;;5072302;28;20490;-68
2022/07/27 09:20:10;;;;;;;5.67;5.00;;;23.30;99.90;;;;;;5071433;28;20520;-68
2022/07/27 09:22:46;;;;;;;6.00;4.50;;;23.30;99.90;;;;;;5072106;28;20914;-70
2022/07/27 09:25:15;;;;;;;6.50;4.70;;;23.60;99.90;;;;;;5071758;28;20840;-69
2022/07/27 09:27:44;;;;;;;5.90;5.13;;;23.60;99.90;;;;;;5072211;28;20457;-68
2022/07/27 09:30:14;;;;;;;7.53;4.90;;;23.60;99.90;;;;;;5071343;28;20459;-68
2022/07/27 09:32:52;;;;;;;4.90;4.40;;;23.60;99.90;;;;;;5072489;28;20451;-69
2022/07/27 09:35:20;;;;;;;7.40;5.27;;;23.70;99.90;;;;;;5069504;28;20471;-68
2022/07/27 09:37:47;;;;;;;5.00;4.60;;;23.50;99.90;;;;;;5071640;28;20458;-70
2022/07/27 09:40:16;;;;;;;5.17;4.77;;;23.10;99.90;;;;;;5071772;28;20447;-68
2022/07/27 09:42:43;;;;;;;5.77;5.27;;;23.20;99.90;;;;;;5071193;28;20505;-68
2022/07/27 09:45:31;;;;;;;6.00;5.50;;;23.30;99.90;;;;;;5071152;28;20467;-69
2022/07/27 09:48:13;;;;;;;8.73;5.43;;;23.80;99.90;;;;;;5071917;28;20451;-68
2022/07/27 09:50:43;;;;;;;5.87;5.27;;;23.70;99.90;;;;;;5070992;28;20825;-68
2022/07/27 09:53:20;;;;;;;5.63;5.07;;;23.80;99.90;;;;;;5071622;28;20933;-68
2022/07/27 09:55:58;;;;;;;6.53;5.00;;;23.80;99.90;;;;;;5070832;28;20999;-68
2022/07/27 09:58:46;;;;;;;5.27;4.77;;;24.10;99.90;;;;;;5071609;28;20447;-68
2022/07/27 10:01:16;;;;;;;6.20;4.80;;;24.80;99.90;;;;;;5070705;28;20912;-69
2022/07/27 10:03:45;;;;;;;5.70;4.90;;;25.00;99.60;;;;;;5071270;28;20500;-70
2022/07/27 10:06:12;;;;;;;5.73;4.83;;;25.50;98.80;;;;;;5068452;28;20474;-68
2022/07/27 10:08:40;;;;;;;5.03;4.53;;;26.10;97.60;;;;;;5065185;28;20466;-69
2022/07/27 10:11:08;;;;;;;5.47;3.57;;;26.40;96.30;;;;;;5064404;28;20570;-68
2022/07/27 10:13:35;;;;;;;5.70;4.40;;;27.00;96.00;;;;;;5063338;28;20447;-68
2022/07/27 10:16:04;;;;;;;5.70;4.73;;;27.50;94.80;;;;;;5068234;28;20508;-68
2022/07/27 10:18:47;;;;;;;7.37;3.87;;;27.60;93.70;;;;;;5060950;28;20447;-69
2022/07/27 10:21:16;;;;;;;5.67;4.40;;;27.30;93.70;;;;;;5063760;28;20546;-68
2022/07/27 10:23:54;;;;;;;5.87;4.53;;;26.50;94.20;;;;;;5064289;28;20867;-68
2022/07/27 10:26:28;;;;;;;5.20;3.93;;;26.40;94.80;;;;;;5064884;28;20469;-68
2022/07/27 10:28:57;;;;;;;5.30;4.30;;;26.90;94.50;;;;;;5060580;28;20530;-70
2022/07/27 10:31:26;;;;;;;7.00;4.03;;;27.20;93.80;;;;;;5058476;28;20996;-69
2022/07/27 10:33:54;;;;;;;6.43;4.40;;;27.50;93.60;;;;;;5053844;28;20463;-68
2022/07/27 10:36:48;;;;;;;4.10;3.70;;;28.10;92.90;;;;;;5050536;28;20475;-69
2022/07/27 10:39:36;;;;;;;4.80;3.80;;;28.10;91.40;;;;;;5061112;28;20444;-69
2022/07/27 10:42:34;;;;;;;5.40;4.10;;;27.90;90.90;;;;;;5050069;28;20444;-68
2022/07/27 10:45:06;;;;;;;6.67;4.07;;;27.30;92.10;;;;;;5027312;28;20444;-69
2022/07/27 10:47:39;;;;;;;6.93;3.93;;;26.80;93.00;;;;;;5054045;28;20456;-68
2022/07/27 10:50:31;;;;;;;6.67;4.20;;;26.20;93.40;;;;;;5060135;28;20454;-69
2022/07/27 10:53:02;;;;;;;5.27;4.40;;;25.90;93.70;;;;;;5066620;28;20494;-68
2022/07/27 10:55:46;;;;;;;6.00;4.30;;;25.50;94.00;;;;;;5059952;28;20506;-68
2022/07/27 10:58:45;;;;;;;4.20;3.60;;;25.10;93.80;;;;;;5063618;28;20477;-69
2022/07/27 11:01:13;;;;;;;4.20;3.80;;;25.60;94.00;;;;;;5049657;28;20432;-68
2022/07/27 11:03:41;;;;;;;4.73;4.07;;;26.60;91.70;;;;;;5061202;28;20450;-67
2022/07/27 11:06:11;;;;;;;4.17;3.43;;;26.70;91.00;;;;;;5063562;28;20456;-69
2022/07/27 11:08:41;;;;;;;4.30;3.13;;;26.50;90.20;;;;;;5065601;28;20450;-68
2022/07/27 11:11:10;;;;;;;4.87;3.30;;;26.50;88.90;;;;;;5062808;28;20840;-68
2022/07/27 11:13:37;;;;;;;5.40;3.90;;;26.30;90.00;;;;;;5063819;28;20454;-69
2022/07/27 11:16:06;;;;;;;4.07;3.67;;;26.60;91.60;;;;;;5063327;28;20482;-70
2022/07/27 11:18:35;;;;;;;5.50;2.90;;;26.90;92.20;;;;;;5067790;28;20435;-69
2022/07/27 11:21:16;;;;;;;7.73;3.70;;;27.10;90.10;;;;;;5063516;28;20432;-69
2022/07/27 11:23:46;;;;;;;3.97;3.63;;;27.10;90.40;;;;;;5065900;28;20455;-68
2022/07/27 11:26:13;;;;;;;3.43;3.13;;;27.20;90.80;;;;;;5063311;28;20461;-69
2022/07/27 11:28:41;;;;;;;3.73;3.37;;;27.60;90.50;;;;;;5069158;28;20473;-69
2022/07/27 11:31:10;;;;;;;3.80;3.13;;;27.60;87.60;;;;;;5060104;28;20475;-68
2022/07/27 11:33:48;;;;;;;6.90;3.00;;;28.80;89.10;;;;;;5062037;28;20451;-68
2022/07/27 11:36:15;;;;;;;4.40;2.97;;;30.10;81.70;;;;;;5059146;28;20467;-69
2022/07/27 11:38:48;;;;;;;3.47;3.17;;;29.60;79.40;;;;;;5061042;28;20443;-68
2022/07/27 11:41:25;;;;;;;3.60;2.43;;;29.80;77.00;;;;;;5055822;28;20454;-68
2022/07/27 11:43:53;;;;;;;3.43;2.63;;;30.50;72.90;;;;;;5061422;28;20443;-70
2022/07/27 11:46:22;;;;;;;4.00;2.77;;;30.70;70.10;;;;;;5067135;28;20462;-67
2022/07/27 11:48:52;;;;;;;4.70;2.83;;;29.40;76.50;;;;;;5063362;28;20461;-68
2022/07/27 11:51:19;;;;;;;3.70;3.40;;;27.90;81.40;;;;;;5064995;28;20475;-69
2022/07/27 11:53:47;;;;;;;7.10;3.73;;;26.80;84.00;;;;;;5059258;28;20431;-68
2022/07/27 11:56:22;;;;;;;4.37;3.20;;;26.10;87.10;;;;;;5069075;28;20470;-68
2022/07/27 11:59:10;;;;;;;4.20;3.47;;;25.70;88.20;;;;;;5069328;28;20449;-68
2022/07/27 12:01:39;;;;;;;3.53;3.03;;;26.00;89.00;;;;;;5071921;28;21088;-67
2022/07/27 12:04:12;;;;;;;4.13;3.03;;;26.60;85.70;;;;;;5069084;28;20968;-68
2022/07/27 12:06:40;;;;;;;3.63;3.27;;;26.80;83.40;;;;;;5067927;28;20475;-68
2022/07/27 12:09:11;;;;;;;5.90;3.03;;;26.90;83.30;;;;;;5067837;28;20447;-68
2022/07/27 12:11:55;;;;;;;5.53;2.67;;;27.40;82.10;;;;;;5069081;28;20493;-68
2022/07/27 12:14:32;;;;;;;3.57;2.40;;;27.20;83.00;;;;;;5071666;28;20447;-68
2022/07/27 12:17:14;;;;;;;3.07;2.47;;;27.60;80.30;;;;;;5071294;28;20470;-69
2022/07/27 12:19:42;;;;;;;3.40;2.37;;;27.90;78.80;;;;;;5069138;28;20446;-68
2022/07/27 12:22:09;;;;;;;2.73;2.23;;;27.70;77.20;;;;;;5065898;28;20969;-69
2022/07/27 12:24:39;;;;;;;2.87;2.20;;;27.30;76.30;;;;;;5072384;28;20447;-68
2022/07/27 12:27:11;;;;;;;2.60;2.00;;;27.10;77.30;;;;;;5072710;28;20462;-69
2022/07/27 12:29:59;;;;;;;5.40;2.20;;;27.00;77.70;;;;;;5072454;28;20435;-69
2022/07/27 12:32:26;;;;;;;3.90;2.17;;;28.00;77.50;;;;;;5072620;28;20478;-68
2022/07/27 12:34:53;;;;;;;3.67;2.60;;;28.00;76.10;;;;;;5071574;28;20552;-68
2022/07/27 12:37:21;;;;;;;4.60;2.60;;;27.40;79.80;;;;;;5070134;28;20451;-68
2022/07/27 12:39:49;;;;;;;3.00;2.57;;;26.50;81.60;;;;;;5071769;28;20989;-68
2022/07/27 12:42:16;;;;;;;4.47;2.70;;;26.00;84.00;;;;;;5071852;28;20439;-68
2022/07/27 12:44:45;;;;;;;3.33;2.70;;;26.00;83.80;;;;;;5070895;28;20443;-68
2022/07/27 12:50:02;;;;;;;5.20;2.50;;;26.20;83.90;;;;;;5057068;28;20426;-69
2022/07/27 12:52:30;;;;;;;5.90;2.50;;;27.40;81.50;;;;;;5072191;28;20478;-68
2022/07/27 12:54:58;;;;;;;3.33;2.40;;;27.90;77.30;;;;;;5071727;28;20941;-68
2022/07/27 12:57:25;;;;;;;3.57;2.70;;;28.00;78.10;;;;;;5072382;28;20554;-68
2022/07/27 12:59:53;;;;;;;7.47;2.60;;;27.90;76.80;;;;;;5071380;28;20900;-68
2022/07/27 13:02:19;;;;;;;2.90;2.40;;;27.80;78.60;;;;;;5071691;28;20473;-69